Terminal Aerodrome Forecast
Issued by NWS

Home | Current Version | Previous Version | Text Only | Print | Product List | Glossary On
Versions: 1 2 3 4 5 6 7 8 9 10 11 12 13 14 15
000
FTUS45 KVEF 070534
TAFVGT
TAF
KVGT 070534Z 0706/0806 20017G25KT P6SM SKC
     FM071200 19010KT P6SM FEW250
     FM071800 20015G25KT P6SM FEW120
     FM072200 20022G30KT P6SM SCT120 BKN250=

USA.gov is the U.S. government's official web portal to all federal, state and local government web resources and services.